VTBS Airport Information

Runway Information
Runway 01L Length 12139 ft width 197 ft
Elevation 0 ft Threshold 0 ft Heading 14
Runway 19R Length 12139 ft Width 197 ft
Elevation 0 ft Threshold 0 ft Heading 194
Runway 01R Length 13123 ft width 197 ft
Elevation 0 ft Threshold 0 ft Heading 14
Runway 19L Length 13123 ft Width 197 ft
Elevation 0 ft Threshold 0 ft Heading 194
Airport Frequencies
Type ATIS Name Frequency 127.8 MHZ
Type GROUND (EA Name Frequency 121.65 MHZ
Type GROUND (MA Name Frequency 121.75 MHZ
Type GROUND (WE Name Frequency 121.95 MHZ
Type TOWER (01L Name Frequency 119 MHZ
Type TOWER (01R Name Frequency 118.2 MHZ
Airport Navaids
Type VOR-DME Name Suvarnabhumi Intl Frequency 111400 KHZ
Airport Weather Information & NOTAM
ADDS - METARS form results

(1451 UTC 20 April 2018)
Data provider http://aviationweather.gov/adds/metars/
 
METAR text: VTBS 201430Z 19008KT 130V220 9999 FEW030 29/24 Q1010 NOSIG
Conditions at: VTBS (CHON BURI/SATTAH, TH) observed 1430 UTC 20 April 2018
Temperature: 29.0°C (84°F)
Dewpoint: 24.0°C (75°F) [RH = 74%]
Pressure (altimeter): 29.82 inches Hg (1010.0 mb)
Winds: from the S (190 degrees) at 9 MPH (8 knots; 4.2 m/s)
Visibility: 6 or more miles (10+ km)
Ceiling: at least 12,000 feet AGL
Clouds: few clouds at 3000 feet AGL
Weather: no significant weather observed at this time

METAR text: VTBS 201400Z 19010KT 9999 FEW030 30/23 Q1009 NOSIG
Conditions at: VTBS (CHON BURI/SATTAH, TH) observed 1400 UTC 20 April 2018
Temperature: 30.0°C (86°F)
Dewpoint: 23.0°C (73°F) [RH = 66%]
Pressure (altimeter): 29.79 inches Hg (1009.0 mb)
Winds: from the S (190 degrees) at 12 MPH (10 knots; 5.2 m/s)
Visibility: 6 or more miles (10+ km)
Ceiling: at least 12,000 feet AGL
Clouds: few clouds at 3000 feet AGL
Weather: no significant weather observed at this time

Forecast for: VTBS (CHON BURI/SATTAH, TH)
Text: TAF VTBS 201100Z 2012/2118 20010KT 9999 FEW020
Forecast period: 1200 to 2000 UTC 20 April 2018
Forecast type: FROM: standard forecast or significant change
Winds: from the SSW (200 degrees) at 12 MPH (10 knots; 5.2 m/s)
Visibility: 6 or more miles (10+ km)
Clouds: few clouds at 2000 feet AGL
Weather: no significant weather forecast for this period
Forecast for: VTBS (CHON BURI/SATTAH, TH)
Text: TAF VTBS 201100Z 2012/2118 20010KT 9999 FEW020
Forecast period: 1200 to 2000 UTC 20 April 2018
Forecast type: FROM: standard forecast or significant change
Winds: from the SSW (200 degrees) at 12 MPH (10 knots; 5.2 m/s)
Visibility: 6 or more miles (10+ km)
Clouds: few clouds at 2000 feet AGL
Weather: no significant weather forecast for this period
Forecast for: VTBS (CHON BURI/SATTAH, TH)
Text: TAF VTBS 201100Z 2012/2118 20010KT 9999 FEW020
Forecast period: 2000 UTC 20 April 2018 to 0200 UTC 21 April 2018
Forecast type: BECOMING: Conditions expected to become as follows by 2200 UTC 20 April 2018
Winds: from the SE (140 degrees) at 6 MPH (5 knots; 2.6 m/s)
Visibility: 6 or more miles (10+ km)
Clouds: few clouds at 2000 feet AGL
Weather: no significant weather forecast for this period
Forecast for: VTBS (CHON BURI/SATTAH, TH)
Text: TAF VTBS 201100Z 2012/2118 20010KT 9999 FEW020
Forecast period: 2000 UTC 20 April 2018 to 0200 UTC 21 April 2018
Forecast type: BECOMING: Conditions expected to become as follows by 2200 UTC 20 April 2018
Winds: from the SE (140 degrees) at 6 MPH (5 knots; 2.6 m/s)
Visibility: 6 or more miles (10+ km)
Clouds: few clouds at 2000 feet AGL
Weather: no significant weather forecast for this period
Forecast for: VTBS (CHON BURI/SATTAH, TH)
Text: TAF VTBS 201100Z 2012/2118 20010KT 9999 FEW020
Forecast period: 0200 to 1800 UTC 21 April 2018
Forecast type: BECOMING: Conditions expected to become as follows by 0400 UTC 21 April 2018
Winds: from the SSW (200 degrees) at 12 MPH (10 knots; 5.2 m/s)
Visibility: 6 or more miles (10+ km)
Clouds: few clouds at 2000 feet AGL
Weather: no significant weather forecast for this period
Forecast for: VTBS (CHON BURI/SATTAH, TH)
Text: TAF VTBS 201100Z 2012/2118 20010KT 9999 FEW020
Forecast period: 0200 to 1800 UTC 21 April 2018
Forecast type: BECOMING: Conditions expected to become as follows by 0400 UTC 21 April 2018
Winds: from the SSW (200 degrees) at 12 MPH (10 knots; 5.2 m/s)
Visibility: 6 or more miles (10+ km)
Clouds: few clouds at 2000 feet AGL
Weather: no significant weather forecast for this period